sensor_id;sensor_type;location;lat;lon;timestamp;pressure;altitude;pressure_sealevel;temperature;humidity
56912;BME280;42800;53.928;27.662;2023-04-28T00:00:29;98538.69;;;3.63;100.00
56912;BME280;42800;53.928;27.662;2023-04-28T00:02:55;98550.19;;;3.60;100.00
56912;BME280;42800;53.928;27.662;2023-04-28T00:05:21;98565.78;;;3.63;100.00
56912;BME280;42800;53.928;27.662;2023-04-28T00:07:48;98558.84;;;3.53;100.00
56912;BME280;42800;53.928;27.662;2023-04-28T00:10:14;98570.34;;;3.50;100.00
56912;BME280;42800;53.928;27.662;2023-04-28T00:12:40;98575.44;;;3.52;100.00
56912;BME280;42800;53.928;27.662;2023-04-28T00:15:06;98587.84;;;3.53;100.00
56912;BME280;42800;53.928;27.662;2023-04-28T00:17:33;98616.75;;;3.49;100.00
56912;BME280;42800;53.928;27.662;2023-04-28T00:19:59;98651.22;;;3.40;100.00
56912;BME280;42800;53.928;27.662;2023-04-28T00:22:25;98634.84;;;3.36;100.00
56912;BME280;42800;53.928;27.662;2023-04-28T00:24:52;98644.84;;;3.44;100.00
56912;BME280;42800;53.928;27.662;2023-04-28T00:27:17;98635.78;;;3.40;100.00
56912;BME280;42800;53.928;27.662;2023-04-28T00:29:44;98655.06;;;3.39;100.00
56912;BME280;42800;53.928;27.662;2023-04-28T00:32:11;98650.00;;;3.37;100.00
56912;BME280;42800;53.928;27.662;2023-04-28T00:34:37;98660.75;;;3.25;100.00
56912;BME280;42800;53.928;27.662;2023-04-28T00:37:03;98744.59;;;3.21;100.00
56912;BME280;42800;53.928;27.662;2023-04-28T00:39:29;98744.22;;;3.32;100.00
56912;BME280;42800;53.928;27.662;2023-04-28T00:41:56;98725.47;;;3.18;100.00
56912;BME280;42800;53.928;27.662;2023-04-28T00:44:22;98755.53;;;3.34;100.00
56912;BME280;42800;53.928;27.662;2023-04-28T00:46:48;98724.59;;;3.35;100.00
56912;BME280;42800;53.928;27.662;2023-04-28T00:49:14;98754.63;;;3.21;100.00
56912;BME280;42800;53.928;27.662;2023-04-28T00:51:40;98770.81;;;3.29;100.00
56912;BME280;42800;53.928;27.662;2023-04-28T00:54:06;98760.00;;;3.29;100.00
56912;BME280;42800;53.928;27.662;2023-04-28T00:56:32;98823.81;;;3.10;100.00
56912;BME280;42800;53.928;27.662;2023-04-28T00:58:59;98845.59;;;3.22;100.00
56912;BME280;42800;53.928;27.662;2023-04-28T01:01:25;98850.53;;;3.20;100.00
56912;BME280;42800;53.928;27.662;2023-04-28T01:03:51;98845.47;;;3.18;100.00
56912;BME280;42800;53.928;27.662;2023-04-28T01:06:17;98841.81;;;3.14;100.00
56912;BME280;42800;53.928;27.662;2023-04-28T01:08:47;98863.78;;;3.21;100.00
56912;BME280;42800;53.928;27.662;2023-04-28T01:11:13;98932.81;;;2.98;100.00
56912;BME280;42800;53.928;27.662;2023-04-28T01:13:39;98969.91;;;3.15;100.00
56912;BME280;42800;53.928;27.662;2023-04-28T01:16:06;98966.56;;;3.09;100.00
56912;BME280;42800;53.928;27.662;2023-04-28T01:18:32;98998.91;;;3.05;100.00
56912;BME280;42800;53.928;27.662;2023-04-28T01:20:59;98999.53;;;3.02;100.00
56912;BME280;42800;53.928;27.662;2023-04-28T01:23:25;99002.59;;;3.01;100.00
56912;BME280;42800;53.928;27.662;2023-04-28T01:25:52;99030.13;;;3.03;100.00
56912;BME280;42800;53.928;27.662;2023-04-28T01:28:18;99034.13;;;3.05;100.00
56912;BME280;42800;53.928;27.662;2023-04-28T01:30:43;99045.44;;;2.99;100.00
56912;BME280;42800;53.928;27.662;2023-04-28T01:33:09;99033.16;;;3.01;100.00
56912;BME280;42800;53.928;27.662;2023-04-28T01:35:35;99061.50;;;2.95;100.00
56912;BME280;42800;53.928;27.662;2023-04-28T01:38:01;99076.00;;;2.99;100.00
56912;BME280;42800;53.928;27.662;2023-04-28T01:40:27;99077.28;;;2.93;100.00
56912;BME280;42800;53.928;27.662;2023-04-28T01:42:54;99078.88;;;2.94;100.00
56912;BME280;42800;53.928;27.662;2023-04-28T01:45:20;99101.97;;;2.92;100.00
56912;BME280;42800;53.928;27.662;2023-04-28T01:47:45;99115.34;;;2.88;100.00
56912;BME280;42800;53.928;27.662;2023-04-28T01:50:11;99141.13;;;2.86;100.00
56912;BME280;42800;53.928;27.662;2023-04-28T01:52:37;99162.31;;;2.83;100.00
56912;BME280;42800;53.928;27.662;2023-04-28T01:55:04;99152.47;;;2.88;100.00
56912;BME280;42800;53.928;27.662;2023-04-28T01:57:31;99168.03;;;2.82;100.00
56912;BME280;42800;53.928;27.662;2023-04-28T02:00:00;99161.94;;;2.76;100.00
56912;BME280;42800;53.928;27.662;2023-04-28T02:02:26;99166.13;;;2.82;100.00
56912;BME280;42800;53.928;27.662;2023-04-28T02:04:52;99150.81;;;2.78;100.00
56912;BME280;42800;53.928;27.662;2023-04-28T02:07:18;99173.56;;;2.68;100.00
56912;BME280;42800;53.928;27.662;2023-04-28T02:09:44;99208.56;;;2.65;100.00
56912;BME280;42800;53.928;27.662;2023-04-28T02:12:10;99215.81;;;2.78;100.00
56912;BME280;42800;53.928;27.662;2023-04-28T02:14:36;99204.97;;;2.78;100.00
56912;BME280;42800;53.928;27.662;2023-04-28T02:17:03;99221.78;;;2.66;100.00
56912;BME280;42800;53.928;27.662;2023-04-28T02:19:29;99216.25;;;2.71;100.00
56912;BME280;42800;53.928;27.662;2023-04-28T02:21:55;99197.31;;;2.71;100.00
56912;BME280;42800;53.928;27.662;2023-04-28T02:24:21;99206.22;;;2.72;100.00
56912;BME280;42800;53.928;27.662;2023-04-28T02:26:47;99177.22;;;2.72;100.00
56912;BME280;42800;53.928;27.662;2023-04-28T02:29:13;99149.69;;;2.70;100.00
56912;BME280;42800;53.928;27.662;2023-04-28T02:31:39;99129.13;;;2.69;100.00
56912;BME280;42800;53.928;27.662;2023-04-28T02:34:06;99140.59;;;2.66;100.00
56912;BME280;42800;53.928;27.662;2023-04-28T02:36:32;99129.75;;;2.57;100.00
56912;BME280;42800;53.928;27.662;2023-04-28T02:38:58;99125.28;;;2.62;100.00
56912;BME280;42800;53.928;27.662;2023-04-28T02:41:24;99108.72;;;2.54;100.00
56912;BME280;42800;53.928;27.662;2023-04-28T02:43:50;99119.56;;;2.63;100.00
56912;BME280;42800;53.928;27.662;2023-04-28T02:46:16;99132.16;;;2.68;100.00
56912;BME280;42800;53.928;27.662;2023-04-28T02:48:42;99117.63;;;2.55;100.00
56912;BME280;42800;53.928;27.662;2023-04-28T02:51:09;99126.06;;;2.53;100.00
56912;BME280;42800;53.928;27.662;2023-04-28T02:53:35;99132.28;;;2.63;100.00
56912;BME280;42800;53.928;27.662;2023-04-28T02:56:00;99119.91;;;2.70;100.00
56912;BME280;42800;53.928;27.662;2023-04-28T02:58:28;99081.34;;;2.65;100.00
56912;BME280;42800;53.928;27.662;2023-04-28T03:00:54;99079.91;;;2.58;100.00
56912;BME280;42800;53.928;27.662;2023-04-28T03:03:20;99059.44;;;2.35;100.00
56912;BME280;42800;53.928;27.662;2023-04-28T03:05:46;99094.56;;;2.66;100.00
56912;BME280;42800;53.928;27.662;2023-04-28T03:08:12;99059.06;;;2.76;100.00
56912;BME280;42800;53.928;27.662;2023-04-28T03:10:38;99019.94;;;2.74;100.00
56912;BME280;42800;53.928;27.662;2023-04-28T03:13:05;99021.38;;;2.80;100.00
56912;BME280;42800;53.928;27.662;2023-04-28T03:15:31;98986.16;;;2.71;100.00
56912;BME280;42800;53.928;27.662;2023-04-28T03:17:57;99012.78;;;3.21;100.00
56912;BME280;42800;53.928;27.662;2023-04-28T03:20:23;98947.41;;;3.40;100.00
56912;BME280;42800;53.928;27.662;2023-04-28T03:22:49;98808.00;;;4.09;100.00
56912;BME280;42800;53.928;27.662;2023-04-28T03:25:16;98625.34;;;4.75;100.00
56912;BME280;42800;53.928;27.662;2023-04-28T03:27:42;98469.34;;;5.29;100.00
56912;BME280;42800;53.928;27.662;2023-04-28T03:30:08;98383.03;;;4.94;100.00
56912;BME280;42800;53.928;27.662;2023-04-28T03:32:35;98379.69;;;5.76;100.00
56912;BME280;42800;53.928;27.662;2023-04-28T03:35:01;98406.81;;;6.04;100.00
56912;BME280;42800;53.928;27.662;2023-04-28T03:37:26;98472.44;;;6.34;100.00
56912;BME280;42800;53.928;27.662;2023-04-28T03:39:52;98509.59;;;6.94;100.00
56912;BME280;42800;53.928;27.662;2023-04-28T03:42:19;98584.03;;;6.98;100.00
56912;BME280;42800;53.928;27.662;2023-04-28T03:44:45;98647.88;;;7.32;100.00
56912;BME280;42800;53.928;27.662;2023-04-28T03:47:11;98684.69;;;7.58;100.00
56912;BME280;42800;53.928;27.662;2023-04-28T03:49:37;98750.31;;;7.65;100.00
56912;BME280;42800;53.928;27.662;2023-04-28T03:52:03;98769.56;;;8.07;100.00
56912;BME280;42800;53.928;27.662;2023-04-28T03:54:29;98812.56;;;7.94;100.00
56912;BME280;42800;53.928;27.662;2023-04-28T03:56:55;98833.72;;;8.52;100.00
56912;BME280;42800;53.928;27.662;2023-04-28T03:59:22;98876.16;;;8.30;100.00
56912;BME280;42800;53.928;27.662;2023-04-28T04:01:48;98880.56;;;8.35;100.00
56912;BME280;42800;53.928;27.662;2023-04-28T04:04:14;98885.50;;;8.45;100.00
56912;BME280;42800;53.928;27.662;2023-04-28T04:06:40;98924.59;;;9.23;100.00
56912;BME280;42800;53.928;27.662;2023-04-28T04:09:06;98943.28;;;9.21;100.00
56912;BME280;42800;53.928;27.662;2023-04-28T04:11:32;98948.69;;;8.98;100.00
56912;BME280;42800;53.928;27.662;2023-04-28T04:13:58;98958.38;;;9.54;100.00
56912;BME280;42800;53.928;27.662;2023-04-28T04:16:24;98994.59;;;9.28;100.00
56912;BME280;42800;53.928;27.662;2023-04-28T04:18:51;98993.56;;;9.98;100.00
56912;BME280;42800;53.928;27.662;2023-04-28T04:21:16;99007.19;;;10.36;100.00
56912;BME280;42800;53.928;27.662;2023-04-28T04:23:42;99017.88;;;10.45;100.00
56912;BME280;42800;53.928;27.662;2023-04-28T04:26:08;99035.13;;;10.72;100.00
56912;BME280;42800;53.928;27.662;2023-04-28T04:28:34;99045.81;;;11.07;100.00
56912;BME280;42800;53.928;27.662;2023-04-28T04:31:00;99037.19;;;10.79;100.00
56912;BME280;42800;53.928;27.662;2023-04-28T04:33:27;99046.41;;;11.20;100.00
56912;BME280;42800;53.928;27.662;2023-04-28T04:35:53;99052.53;;;11.10;100.00
56912;BME280;42800;53.928;27.662;2023-04-28T04:38:19;99058.53;;;10.20;100.00
56912;BME280;42800;53.928;27.662;2023-04-28T04:40:45;99048.84;;;10.49;100.00
56912;BME280;42800;53.928;27.662;2023-04-28T04:43:11;99037.88;;;10.72;100.00
56912;BME280;42800;53.928;27.662;2023-04-28T04:45:37;99058.06;;;10.60;100.00
56912;BME280;42800;53.928;27.662;2023-04-28T04:48:04;99054.84;;;10.12;100.00
56912;BME280;42800;53.928;27.662;2023-04-28T04:50:30;99043.94;;;10.35;100.00
56912;BME280;42800;53.928;27.662;2023-04-28T04:52:56;99062.31;;;10.58;100.00
56912;BME280;42800;53.928;27.662;2023-04-28T04:55:22;99056.97;;;10.42;100.00
56912;BME280;42800;53.928;27.662;2023-04-28T04:57:48;99067.19;;;10.95;100.00
56912;BME280;42800;53.928;27.662;2023-04-28T05:00:15;99076.84;;;11.12;100.00
56912;BME280;42800;53.928;27.662;2023-04-28T05:02:41;99085.03;;;11.38;100.00
56912;BME280;42800;53.928;27.662;2023-04-28T05:05:08;99093.69;;;12.00;96.62
56912;BME280;42800;53.928;27.662;2023-04-28T05:07:34;99098.72;;;12.36;95.88
56912;BME280;42800;53.928;27.662;2023-04-28T05:10:01;99112.75;;;12.64;89.13
56912;BME280;42800;53.928;27.662;2023-04-28T05:12:27;99113.50;;;12.61;87.52
56912;BME280;42800;53.928;27.662;2023-04-28T05:14:53;99114.91;;;12.89;85.70
56912;BME280;42800;53.928;27.662;2023-04-28T05:17:19;99120.13;;;13.05;83.36
56912;BME280;42800;53.928;27.662;2023-04-28T05:19:45;99117.53;;;12.30;87.51
56912;BME280;42800;53.928;27.662;2023-04-28T05:22:11;99120.56;;;13.10;84.47
56912;BME280;42800;53.928;27.662;2023-04-28T05:24:37;99124.56;;;13.20;82.15
56912;BME280;42800;53.928;27.662;2023-04-28T05:27:03;99127.03;;;12.81;84.62
56912;BME280;42800;53.928;27.662;2023-04-28T05:29:29;99126.56;;;12.71;85.04
56912;BME280;42800;53.928;27.662;2023-04-28T05:31:55;99142.56;;;13.69;78.37
56912;BME280;42800;53.928;27.662;2023-04-28T05:34:21;99152.00;;;13.64;75.95
56912;BME280;42800;53.928;27.662;2023-04-28T05:36:47;99152.53;;;13.92;74.63
56912;BME280;42800;53.928;27.662;2023-04-28T05:39:13;99151.22;;;13.68;73.62
56912;BME280;42800;53.928;27.662;2023-04-28T05:41:40;99149.97;;;13.51;77.21
56912;BME280;42800;53.928;27.662;2023-04-28T05:44:06;99154.34;;;13.66;76.04
56912;BME280;42800;53.928;27.662;2023-04-28T05:46:32;99150.84;;;13.69;77.63
56912;BME280;42800;53.928;27.662;2023-04-28T05:48:57;99156.88;;;13.96;72.98
56912;BME280;42800;53.928;27.662;2023-04-28T05:51:24;99164.31;;;13.88;72.36
56912;BME280;42800;53.928;27.662;2023-04-28T05:53:51;99166.53;;;13.58;72.12
56912;BME280;42800;53.928;27.662;2023-04-28T05:56:17;99165.03;;;13.75;72.16
56912;BME280;42800;53.928;27.662;2023-04-28T05:58:44;99163.28;;;13.41;72.49
56912;BME280;42800;53.928;27.662;2023-04-28T06:01:10;99165.28;;;13.45;73.45
56912;BME280;42800;53.928;27.662;2023-04-28T06:03:36;99166.66;;;13.83;72.89
56912;BME280;42800;53.928;27.662;2023-04-28T06:06:02;99173.16;;;14.33;72.22
56912;BME280;42800;53.928;27.662;2023-04-28T06:08:28;99170.28;;;14.01;71.35
56912;BME280;42800;53.928;27.662;2023-04-28T06:10:54;99181.00;;;14.21;71.62
56912;BME280;42800;53.928;27.662;2023-04-28T06:13:20;99186.63;;;14.53;69.77
56912;BME280;42800;53.928;27.662;2023-04-28T06:15:47;99170.50;;;14.73;68.97
56912;BME280;42800;53.928;27.662;2023-04-28T06:18:13;99170.13;;;15.03;68.29
56912;BME280;42800;53.928;27.662;2023-04-28T06:20:40;99178.78;;;15.12;66.95
56912;BME280;42800;53.928;27.662;2023-04-28T06:23:06;99179.19;;;14.93;66.31
56912;BME280;42800;53.928;27.662;2023-04-28T06:25:33;99181.94;;;15.25;65.85
56912;BME280;42800;53.928;27.662;2023-04-28T06:27:59;99188.97;;;15.87;64.68
56912;BME280;42800;53.928;27.662;2023-04-28T06:30:25;99185.34;;;16.00;62.77
56912;BME280;42800;53.928;27.662;2023-04-28T06:32:52;99192.03;;;16.14;61.15
56912;BME280;42800;53.928;27.662;2023-04-28T06:35:18;99190.75;;;16.36;62.80
56912;BME280;42800;53.928;27.662;2023-04-28T06:37:44;99183.03;;;16.76;59.02
56912;BME280;42800;53.928;27.662;2023-04-28T06:40:10;99188.94;;;16.71;60.23
56912;BME280;42800;53.928;27.662;2023-04-28T06:42:36;99181.44;;;15.94;59.71
56912;BME280;42800;53.928;27.662;2023-04-28T06:45:02;99185.38;;;15.93;61.19
56912;BME280;42800;53.928;27.662;2023-04-28T06:47:28;99184.28;;;15.51;60.11
56912;BME280;42800;53.928;27.662;2023-04-28T06:49:55;99188.63;;;15.60;61.34
56912;BME280;42800;53.928;27.662;2023-04-28T06:52:21;99191.03;;;15.36;59.19
56912;BME280;42800;53.928;27.662;2023-04-28T06:54:47;99187.41;;;15.64;58.31
56912;BME280;42800;53.928;27.662;2023-04-28T06:57:13;99187.78;;;15.88;58.13
56912;BME280;42800;53.928;27.662;2023-04-28T06:59:39;99183.44;;;15.76;56.56
56912;BME280;42800;53.928;27.662;2023-04-28T07:02:08;99194.16;;;15.38;55.33
56912;BME280;42800;53.928;27.662;2023-04-28T07:04:34;99199.28;;;15.68;55.37
56912;BME280;42800;53.928;27.662;2023-04-28T07:07:01;99193.75;;;15.50;55.91
56912;BME280;42800;53.928;27.662;2023-04-28T07:09:27;99197.91;;;16.16;53.75
56912;BME280;42800;53.928;27.662;2023-04-28T07:11:53;99200.75;;;16.05;54.67
56912;BME280;42800;53.928;27.662;2023-04-28T07:14:19;99193.13;;;16.31;53.14
56912;BME280;42800;53.928;27.662;2023-04-28T07:16:45;99191.38;;;16.62;52.18
56912;BME280;42800;53.928;27.662;2023-04-28T07:19:10;99198.16;;;16.54;52.56
56912;BME280;42800;53.928;27.662;2023-04-28T07:21:36;99195.59;;;16.11;53.54
56912;BME280;42800;53.928;27.662;2023-04-28T07:24:03;99191.91;;;16.35;53.98
56912;BME280;42800;53.928;27.662;2023-04-28T07:26:29;99194.03;;;16.83;52.74
56912;BME280;42800;53.928;27.662;2023-04-28T07:28:58;99193.66;;;16.74;53.50
56912;BME280;42800;53.928;27.662;2023-04-28T07:31:23;99186.88;;;17.76;52.83
56912;BME280;42800;53.928;27.662;2023-04-28T07:33:50;99192.91;;;18.05;52.67
56912;BME280;42800;53.928;27.662;2023-04-28T07:36:16;99181.44;;;17.24;53.96
56912;BME280;42800;53.928;27.662;2023-04-28T07:38:42;99191.72;;;16.75;55.07
56912;BME280;42800;53.928;27.662;2023-04-28T07:41:08;99184.06;;;16.27;55.63
56912;BME280;42800;53.928;27.662;2023-04-28T07:43:34;99192.47;;;16.79;55.38
56912;BME280;42800;53.928;27.662;2023-04-28T07:46:00;99183.25;;;17.00;54.20
56912;BME280;42800;53.928;27.662;2023-04-28T07:48:26;99192.69;;;17.02;55.01
56912;BME280;42800;53.928;27.662;2023-04-28T07:50:53;99191.59;;;16.96;56.19
56912;BME280;42800;53.928;27.662;2023-04-28T07:53:19;99202.34;;;16.83;54.30
56912;BME280;42800;53.928;27.662;2023-04-28T07:55:45;99185.16;;;16.43;55.10
56912;BME280;42800;53.928;27.662;2023-04-28T07:58:12;99183.19;;;16.40;55.11
56912;BME280;42800;53.928;27.662;2023-04-28T08:00:38;99190.97;;;16.63;55.69
56912;BME280;42800;53.928;27.662;2023-04-28T08:03:04;99191.75;;;16.64;54.38
56912;BME280;42800;53.928;27.662;2023-04-28T08:05:29;99190.22;;;17.15;55.67
56912;BME280;42800;53.928;27.662;2023-04-28T08:07:56;99196.13;;;17.62;53.61
56912;BME280;42800;53.928;27.662;2023-04-28T08:10:22;99181.28;;;17.83;53.59
56912;BME280;42800;53.928;27.662;2023-04-28T08:12:50;99182.78;;;18.22;54.29
56912;BME280;42800;53.928;27.662;2023-04-28T08:15:17;99188.97;;;18.64;53.20
56912;BME280;42800;53.928;27.662;2023-04-28T08:17:43;99185.69;;;18.72;52.06
56912;BME280;42800;53.928;27.662;2023-04-28T08:20:09;99193.13;;;18.79;50.77
56912;BME280;42800;53.928;27.662;2023-04-28T08:22:35;99182.59;;;18.05;49.92
56912;BME280;42800;53.928;27.662;2023-04-28T08:25:01;99181.81;;;18.05;50.88
56912;BME280;42800;53.928;27.662;2023-04-28T08:27:27;99180.94;;;18.11;51.15
56912;BME280;42800;53.928;27.662;2023-04-28T08:29:53;99183.69;;;17.36;51.60
56912;BME280;42800;53.928;27.662;2023-04-28T08:32:20;99173.88;;;17.28;53.47
56912;BME280;42800;53.928;27.662;2023-04-28T08:34:46;99186.19;;;16.67;53.51
56912;BME280;42800;53.928;27.662;2023-04-28T08:37:12;99190.94;;;16.67;53.98
56912;BME280;42800;53.928;27.662;2023-04-28T08:39:38;99189.94;;;16.39;53.51
56912;BME280;42800;53.928;27.662;2023-04-28T08:42:04;99176.84;;;16.47;51.76
56912;BME280;42800;53.928;27.662;2023-04-28T08:44:35;99178.81;;;17.51;51.32
56912;BME280;42800;53.928;27.662;2023-04-28T08:47:04;99184.50;;;17.78;51.43
56912;BME280;42800;53.928;27.662;2023-04-28T08:49:37;99175.03;;;16.85;50.49
56912;BME280;42800;53.928;27.662;2023-04-28T08:52:09;99186.00;;;17.00;52.41
56912;BME280;42800;53.928;27.662;2023-04-28T08:54:37;99183.72;;;16.87;51.21
56912;BME280;42800;53.928;27.662;2023-04-28T08:57:03;99186.22;;;16.64;52.02
56912;BME280;42800;53.928;27.662;2023-04-28T08:59:33;99183.16;;;16.47;51.13
56912;BME280;42800;53.928;27.662;2023-04-28T09:01:59;99178.56;;;17.34;51.27
56912;BME280;42800;53.928;27.662;2023-04-28T09:04:25;99179.38;;;17.35;52.16
56912;BME280;42800;53.928;27.662;2023-04-28T09:06:52;99177.00;;;17.33;51.56
56912;BME280;42800;53.928;27.662;2023-04-28T09:09:24;99171.28;;;17.89;50.32
56912;BME280;42800;53.928;27.662;2023-04-28T09:11:51;99170.91;;;17.08;51.09
56912;BME280;42800;53.928;27.662;2023-04-28T09:14:17;99172.13;;;16.44;53.18
56912;BME280;42800;53.928;27.662;2023-04-28T09:16:43;99176.41;;;16.48;52.26
56912;BME280;42800;53.928;27.662;2023-04-28T09:19:09;99177.94;;;15.80;53.55
56912;BME280;42800;53.928;27.662;2023-04-28T09:21:45;99171.25;;;15.48;52.32
56912;BME280;42800;53.928;27.662;2023-04-28T09:26:55;99154.84;;;16.85;55.18
56912;BME280;42800;53.928;27.662;2023-04-28T09:29:21;99158.56;;;17.16;53.43
56912;BME280;42800;53.928;27.662;2023-04-28T09:31:48;99165.88;;;17.75;51.69
56912;BME280;42800;53.928;27.662;2023-04-28T09:34:14;99166.09;;;15.68;53.38
56912;BME280;42800;53.928;27.662;2023-04-28T09:36:40;99168.91;;;14.72;53.44
56912;BME280;42800;53.928;27.662;2023-04-28T09:39:06;99165.94;;;13.97;55.94
56912;BME280;42800;53.928;27.662;2023-04-28T09:41:37;99161.78;;;13.55;57.28
56912;BME280;42800;53.928;27.662;2023-04-28T09:44:14;99159.38;;;12.94;60.45
56912;BME280;42800;53.928;27.662;2023-04-28T09:46:41;99166.44;;;14.24;58.11
56912;BME280;42800;53.928;27.662;2023-04-28T09:49:09;99170.84;;;15.61;57.67
56912;BME280;42800;53.928;27.662;2023-04-28T09:51:35;99160.22;;;15.66;55.60
56912;BME280;42800;53.928;27.662;2023-04-28T09:54:01;99152.47;;;16.20;53.21
56912;BME280;42800;53.928;27.662;2023-04-28T09:56:28;99161.41;;;16.50;52.51
56912;BME280;42800;53.928;27.662;2023-04-28T09:58:56;99164.09;;;15.72;56.81
56912;BME280;42800;53.928;27.662;2023-04-28T10:01:23;99170.13;;;15.10;54.14
56912;BME280;42800;53.928;27.662;2023-04-28T10:03:51;99169.28;;;14.52;55.07
56912;BME280;42800;53.928;27.662;2023-04-28T10:06:18;99158.81;;;13.88;55.93
56912;BME280;42800;53.928;27.662;2023-04-28T10:08:44;99163.53;;;13.88;64.68
56912;BME280;42800;53.928;27.662;2023-04-28T10:11:13;99161.44;;;15.08;63.55
56912;BME280;42800;53.928;27.662;2023-04-28T10:13:41;99163.81;;;15.17;55.62
56912;BME280;42800;53.928;27.662;2023-04-28T10:16:09;99166.47;;;14.49;54.91
56912;BME280;42800;53.928;27.662;2023-04-28T10:18:36;99171.06;;;14.05;54.77
56912;BME280;42800;53.928;27.662;2023-04-28T10:21:03;99166.56;;;13.65;57.15
56912;BME280;42800;53.928;27.662;2023-04-28T10:24:06;99160.13;;;14.23;56.29
56912;BME280;42800;53.928;27.662;2023-04-28T10:27:02;99154.31;;;15.25;54.50
56912;BME280;42800;53.928;27.662;2023-04-28T10:29:30;99160.19;;;15.52;53.67
56912;BME280;42800;53.928;27.662;2023-04-28T10:32:20;99152.38;;;14.97;54.87
56912;BME280;42800;53.928;27.662;2023-04-28T10:34:47;99159.06;;;14.85;54.13
56912;BME280;42800;53.928;27.662;2023-04-28T10:37:13;99150.38;;;14.51;54.34
56912;BME280;42800;53.928;27.662;2023-04-28T10:39:40;99161.50;;;13.78;56.65
56912;BME280;42800;53.928;27.662;2023-04-28T10:45:13;99155.97;;;13.12;57.93
56912;BME280;42800;53.928;27.662;2023-04-28T10:48:00;99160.84;;;12.81;57.97
56912;BME280;42800;53.928;27.662;2023-04-28T10:50:30;99156.84;;;12.75;57.74
56912;BME280;42800;53.928;27.662;2023-04-28T10:52:56;99158.19;;;12.51;57.50
56912;BME280;42800;53.928;27.662;2023-04-28T10:55:26;99159.91;;;12.29;57.23
56912;BME280;42800;53.928;27.662;2023-04-28T11:00:53;99157.38;;;11.80;59.96
56912;BME280;42800;53.928;27.662;2023-04-28T11:03:41;99154.47;;;11.99;60.63
56912;BME280;42800;53.928;27.662;2023-04-28T11:06:19;99154.75;;;12.20;62.14
56912;BME280;42800;53.928;27.662;2023-04-28T11:08:47;99150.09;;;12.28;60.20
56912;BME280;42800;53.928;27.662;2023-04-28T11:11:20;99153.63;;;12.29;60.99
56912;BME280;42800;53.928;27.662;2023-04-28T11:13:47;99138.75;;;12.30;61.02
56912;BME280;42800;53.928;27.662;2023-04-28T11:16:14;99133.34;;;12.40;60.99
56912;BME280;42800;53.928;27.662;2023-04-28T11:18:50;99142.19;;;12.60;60.97
56912;BME280;42800;53.928;27.662;2023-04-28T11:21:16;99148.19;;;12.73;59.80
56912;BME280;42800;53.928;27.662;2023-04-28T11:23:43;99143.34;;;13.04;59.21
56912;BME280;42800;53.928;27.662;2023-04-28T11:26:09;99138.09;;;13.39;59.05
56912;BME280;42800;53.928;27.662;2023-04-28T11:28:36;99122.94;;;13.74;57.59
56912;BME280;42800;53.928;27.662;2023-04-28T11:31:11;99121.69;;;13.64;58.28
56912;BME280;42800;53.928;27.662;2023-04-28T11:33:37;99125.69;;;13.78;56.81
56912;BME280;42800;53.928;27.662;2023-04-28T11:36:05;99124.28;;;14.16;56.51
56912;BME280;42800;53.928;27.662;2023-04-28T11:38:42;99122.75;;;14.44;54.89
56912;BME280;42800;53.928;27.662;2023-04-28T11:41:08;99126.34;;;14.91;55.37
56912;BME280;42800;53.928;27.662;2023-04-28T11:43:35;99116.84;;;14.56;54.65
56912;BME280;42800;53.928;27.662;2023-04-28T11:46:00;99119.94;;;14.26;54.16
56912;BME280;42800;53.928;27.662;2023-04-28T11:48:26;99124.63;;;14.11;54.74
56912;BME280;42800;53.928;27.662;2023-04-28T11:50:52;99126.63;;;14.21;56.48
56912;BME280;42800;53.928;27.662;2023-04-28T11:53:19;99127.19;;;13.61;56.31
56912;BME280;42800;53.928;27.662;2023-04-28T11:55:45;99127.28;;;13.86;55.07
56912;BME280;42800;53.928;27.662;2023-04-28T11:58:18;99129.72;;;14.02;56.52
56912;BME280;42800;53.928;27.662;2023-04-28T12:01:05;99123.84;;;14.14;57.34
56912;BME280;42800;53.928;27.662;2023-04-28T12:03:31;99130.63;;;14.45;58.25
56912;BME280;42800;53.928;27.662;2023-04-28T12:05:57;99133.72;;;14.26;55.70
56912;BME280;42800;53.928;27.662;2023-04-28T12:08:27;99124.88;;;13.70;57.63
56912;BME280;42800;53.928;27.662;2023-04-28T12:11:06;99123.19;;;13.48;57.09
56912;BME280;42800;53.928;27.662;2023-04-28T12:13:33;99132.44;;;13.91;55.20
56912;BME280;42800;53.928;27.662;2023-04-28T12:16:00;99126.44;;;13.68;54.47
56912;BME280;42800;53.928;27.662;2023-04-28T12:18:27;99127.94;;;13.54;54.87
56912;BME280;42800;53.928;27.662;2023-04-28T12:20:53;99124.44;;;13.61;54.46
56912;BME280;42800;53.928;27.662;2023-04-28T12:23:28;99129.66;;;13.80;54.22
56912;BME280;42800;53.928;27.662;2023-04-28T12:25:55;99128.44;;;13.71;53.64
56912;BME280;42800;53.928;27.662;2023-04-28T12:28:21;99138.16;;;13.50;53.80
56912;BME280;42800;53.928;27.662;2023-04-28T12:30:47;99122.25;;;13.26;54.27
56912;BME280;42800;53.928;27.662;2023-04-28T12:33:22;99122.00;;;13.49;54.26
56912;BME280;42800;53.928;27.662;2023-04-28T12:35:49;99122.84;;;13.56;54.70
56912;BME280;42800;53.928;27.662;2023-04-28T12:38:15;99114.47;;;13.38;53.82
56912;BME280;42800;53.928;27.662;2023-04-28T12:40:42;99115.19;;;13.25;54.07
56912;BME280;42800;53.928;27.662;2023-04-28T12:43:08;99120.56;;;13.07;55.05
56912;BME280;42800;53.928;27.662;2023-04-28T12:45:35;99113.81;;;13.01;55.73
56912;BME280;42800;53.928;27.662;2023-04-28T12:48:01;99106.00;;;13.06;57.49
56912;BME280;42800;53.928;27.662;2023-04-28T12:50:27;99113.91;;;13.15;56.42
56912;BME280;42800;53.928;27.662;2023-04-28T12:52:56;99118.16;;;13.05;57.30
56912;BME280;42800;53.928;27.662;2023-04-28T12:55:23;99112.78;;;13.19;57.20
56912;BME280;42800;53.928;27.662;2023-04-28T12:57:49;99121.47;;;13.25;55.81